Time;durP1;ratioP1;P1;durP2;ratioP2;P2;SDS_P1;SDS_P2;PMS_P1;PMS_P2;Temp;Humidity;BMP_temperature;BMP_pressure;BME280_temperature;BME280_humidity;BME280_pressure;Samples;Min_cycle;Max_cycle;Signal;HPM_P1;HPM_P2
2023/08/03 00:05:34;;;;;;;10.70;2.17;;;19.40;99.90;;;;;;21005958;28;20246;-77
2023/08/03 00:15:36;;;;;;;10.37;2.13;;;19.50;99.90;;;;;;21005263;28;20220;-66
2023/08/03 00:25:38;;;;;;;7.70;1.90;;;19.30;99.80;;;;;;21004020;28;20266;-65
2023/08/03 00:35:39;;;;;;;10.47;2.17;;;19.30;99.60;;;;;;21003205;28;20211;-66
2023/08/03 00:45:41;;;;;;;6.03;1.93;;;19.20;99.60;;;;;;21002656;28;20241;-66
2023/08/03 00:55:43;;;;;;;5.40;1.90;;;19.10;99.60;;;;;;21002218;28;20207;-65
2023/08/03 01:05:45;;;;;;;7.60;1.83;;;19.20;99.30;;;;;;21000493;28;20242;-65
2023/08/03 01:15:47;;;;;;;10.70;1.80;;;19.30;98.40;;;;;;21000261;28;20286;-65
2023/08/03 01:25:48;;;;;;;8.87;1.93;;;19.30;98.70;;;;;;21005883;28;20653;-66
2023/08/03 01:35:51;;;;;;;9.63;2.27;;;19.30;97.10;;;;;;21034700;28;20211;-65
2023/08/03 01:45:53;;;;;;;5.77;2.00;;;19.40;96.50;;;;;;20998255;28;20241;-68
2023/08/03 01:55:55;;;;;;;5.60;1.53;;;19.40;96.50;;;;;;20997216;28;20271;-65
2023/08/03 02:05:56;;;;;;;9.97;2.30;;;19.40;96.40;;;;;;20996760;28;20687;-72
2023/08/03 02:16:01;;;;;;;9.90;2.10;;;19.40;95.40;;;;;;20996326;28;20291;-71
2023/08/03 02:26:23;;;;;;;5.83;1.63;;;19.30;95.00;;;;;;20996333;28;20238;-77
2023/08/03 02:36:25;;;;;;;11.37;2.33;;;19.30;94.80;;;;;;20995371;28;20373;-80
2023/08/03 02:46:26;;;;;;;10.23;1.90;;;19.20;94.70;;;;;;20996340;28;20315;-75
2023/08/03 02:56:28;;;;;;;10.77;1.93;;;19.10;94.60;;;;;;21011350;28;20658;-78
2023/08/03 03:06:30;;;;;;;4.90;1.70;;;19.10;93.90;;;;;;21009910;28;20670;-65
2023/08/03 03:16:32;;;;;;;8.97;1.97;;;19.10;94.50;;;;;;21008429;28;20218;-65
2023/08/03 03:26:33;;;;;;;6.97;2.17;;;19.10;92.90;;;;;;21008447;28;20277;-66
2023/08/03 03:36:35;;;;;;;5.73;1.50;;;19.10;92.40;;;;;;21007800;28;20680;-67
2023/08/03 03:46:37;;;;;;;5.70;1.40;;;19.20;90.60;;;;;;21007345;28;20273;-67
2023/08/03 03:56:39;;;;;;;5.60;1.30;;;19.20;90.30;;;;;;21004936;28;20220;-66
2023/08/03 04:06:40;;;;;;;6.07;1.57;;;19.20;90.60;;;;;;21002962;28;20249;-66
2023/08/03 04:16:42;;;;;;;7.27;2.63;;;19.20;90.70;;;;;;21005303;28;20207;-67
2023/08/03 04:26:44;;;;;;;5.47;1.63;;;19.30;90.40;;;;;;21004428;28;20239;-66
2023/08/03 04:36:47;;;;;;;3.87;1.10;;;19.30;90.70;;;;;;21003357;28;20301;-64
2023/08/03 04:46:49;;;;;;;6.10;2.00;;;19.30;90.60;;;;;;21002292;28;20708;-65
2023/08/03 04:56:51;;;;;;;3.30;1.27;;;19.30;90.80;;;;;;21001707;28;20218;-65
2023/08/03 05:06:54;;;;;;;6.40;1.40;;;19.20;91.20;;;;;;21000374;28;20244;-65
2023/08/03 05:16:56;;;;;;;5.30;0.87;;;19.20;91.10;;;;;;20999649;28;20243;-66
2023/08/03 05:26:57;;;;;;;1.50;0.70;;;19.20;91.00;;;;;;20999549;28;20245;-68
2023/08/03 05:36:59;;;;;;;1.07;0.73;;;19.30;91.10;;;;;;21014402;28;20312;-68
2023/08/03 05:47:01;;;;;;;2.67;0.87;;;19.40;91.20;;;;;;21028130;28;20337;-70
2023/08/03 05:57:04;;;;;;;6.83;0.93;;;19.40;91.50;;;;;;20996631;28;20301;-70
2023/08/03 06:07:08;;;;;;;1.83;1.00;;;19.40;92.00;;;;;;20995948;28;20243;-70
2023/08/03 06:17:10;;;;;;;2.83;1.17;;;19.30;92.40;;;;;;20995380;28;20544;-69
2023/08/03 06:27:12;;;;;;;3.03;1.40;;;19.30;92.60;;;;;;20995416;28;20265;-68
2023/08/03 06:37:14;;;;;;;3.03;1.03;;;19.50;92.50;;;;;;20994901;28;20519;-68
2023/08/03 06:47:16;;;;;;;5.33;1.50;;;19.70;92.20;;;;;;20994447;28;20716;-69
2023/08/03 06:57:18;;;;;;;4.97;1.13;;;19.90;91.40;;;;;;20994358;28;20636;-69
2023/08/03 07:07:20;;;;;;;2.23;0.93;;;20.00;91.40;;;;;;20993039;28;20732;-71
2023/08/03 07:17:22;;;;;;;5.17;1.30;;;20.00;91.10;;;;;;20992859;28;20218;-74
2023/08/03 07:27:24;;;;;;;5.17;1.43;;;19.90;90.60;;;;;;20993042;28;20235;-75
2023/08/03 07:37:25;;;;;;;2.33;1.00;;;20.00;88.70;;;;;;21000570;28;20214;-70
2023/08/03 07:47:27;;;;;;;4.13;0.93;;;20.10;88.90;;;;;;21006525;28;20245;-75
2023/08/03 07:57:29;;;;;;;4.83;1.30;;;20.20;88.10;;;;;;21006188;28;20211;-74
2023/08/03 08:07:31;;;;;;;2.70;0.80;;;20.30;87.40;;;;;;21004663;28;20330;-70
2023/08/03 08:17:34;;;;;;;3.57;0.77;;;20.30;86.90;;;;;;21004383;28;20207;-72
2023/08/03 08:27:35;;;;;;;2.97;1.20;;;20.50;87.80;;;;;;21002846;28;20234;-71
2023/08/03 08:37:37;;;;;;;1.80;1.00;;;20.60;88.30;;;;;;21003016;28;20572;-71
2023/08/03 08:47:39;;;;;;;0.97;0.63;;;20.60;88.40;;;;;;21001422;28;20258;-71
2023/08/03 08:57:41;;;;;;;3.00;0.83;;;20.70;88.20;;;;;;21001745;28;20227;-71
2023/08/03 09:07:59;;;;;;;1.30;0.70;;;20.50;87.80;;;;;;20998748;28;20242;-71
2023/08/03 09:18:05;;;;;;;1.33;0.70;;;20.70;87.80;;;;;;20999620;28;20202;-72
2023/08/03 09:28:07;;;;;;;1.57;0.80;;;20.70;88.40;;;;;;20999377;28;20657;-73
2023/08/03 09:38:23;;;;;;;4.27;0.70;;;20.70;88.00;;;;;;21001908;28;20237;-76
2023/08/03 09:48:26;;;;;;;3.37;0.80;;;20.80;88.20;;;;;;21005761;28;20235;-78
2023/08/03 09:58:50;;;;;;;4.57;0.90;;;20.90;87.70;;;;;;20995900;28;20207;-79
2023/08/03 10:09:06;;;;;;;2.30;0.90;;;20.80;87.50;;;;;;20995856;28;20274;-70
2023/08/03 10:19:08;;;;;;;1.87;0.73;;;21.00;87.10;;;;;;20995523;28;20207;-71
2023/08/03 10:29:10;;;;;;;1.90;0.87;;;21.00;86.90;;;;;;20995047;28;20243;-73
2023/08/03 10:39:16;;;;;;;3.73;1.60;;;21.10;86.50;;;;;;20994201;28;20286;-77
2023/08/03 10:49:22;;;;;;;2.30;1.30;;;20.90;86.60;;;;;;20993855;28;20779;-78
2023/08/03 10:59:24;;;;;;;1.93;1.00;;;21.00;86.70;;;;;;20994057;28;20211;-77
2023/08/03 11:09:26;;;;;;;1.53;1.00;;;21.10;86.60;;;;;;20997053;28;20330;-78
2023/08/03 11:19:32;;;;;;;4.60;1.47;;;21.20;86.70;;;;;;21008792;28;20602;-72
2023/08/03 11:29:36;;;;;;;6.30;1.50;;;21.40;86.60;;;;;;21008468;28;20322;-78
2023/08/03 11:39:38;;;;;;;4.87;1.10;;;21.30;86.20;;;;;;21006843;28;20218;-79
2023/08/03 11:49:40;;;;;;;2.27;1.03;;;21.70;85.70;;;;;;21006401;28;20231;-72
2023/08/03 11:59:42;;;;;;;1.70;1.00;;;22.10;83.70;;;;;;21005908;28;20278;-77
2023/08/03 12:09:44;;;;;;;2.40;1.00;;;22.20;82.80;;;;;;21004855;28;20245;-73
2023/08/03 12:19:46;;;;;;;1.63;0.83;;;21.70;83.20;;;;;;21003818;28;20226;-73
2023/08/03 12:29:47;;;;;;;1.90;1.00;;;21.70;83.60;;;;;;21003959;28;20728;-72
2023/08/03 12:39:49;;;;;;;2.40;0.90;;;21.50;84.40;;;;;;21002909;28;20298;-71
2023/08/03 12:49:53;;;;;;;3.57;1.73;;;21.30;85.20;;;;;;21003271;28;20288;-71
2023/08/03 12:59:55;;;;;;;1.10;0.80;;;21.30;85.60;;;;;;21121961;27;20293;-73
2023/08/03 13:09:57;;;;;;;1.10;0.60;;;21.50;85.20;;;;;;21140923;28;20295;-80
2023/08/03 13:19:58;;;;;;;2.70;1.10;;;21.90;84.70;;;;;;21082946;28;20207;-72
2023/08/03 13:30:00;;;;;;;1.73;0.90;;;21.80;83.90;;;;;;21133914;28;20241;-69
2023/08/03 13:40:03;;;;;;;1.67;0.97;;;21.60;84.00;;;;;;21165381;28;20683;-70
2023/08/03 13:50:05;;;;;;;1.53;0.90;;;21.70;84.30;;;;;;21058104;28;20300;-69
2023/08/03 14:00:09;;;;;;;4.63;0.90;;;22.00;82.90;;;;;;21031718;28;20202;-70
2023/08/03 14:10:11;;;;;;;1.13;0.70;;;22.30;82.00;;;;;;21161164;28;20246;-66
2023/08/03 14:20:18;;;;;;;0.77;0.60;;;22.80;80.70;;;;;;21162981;28;20702;-70
2023/08/03 14:30:23;;;;;;;2.77;0.90;;;22.60;79.90;;;;;;21163082;28;20304;-70
2023/08/03 14:40:25;;;;;;;2.00;1.00;;;22.60;79.70;;;;;;21144493;28;20650;-65
2023/08/03 14:50:28;;;;;;;2.17;0.70;;;23.50;76.90;;;;;;21176949;28;20229;-65
2023/08/03 15:00:31;;;;;;;1.33;0.80;;;23.50;75.70;;;;;;21157277;28;20203;-64
2023/08/03 15:10:33;;;;;;;1.60;0.70;;;24.70;71.70;;;;;;21094159;28;20600;-66
2023/08/03 15:20:34;;;;;;;0.70;0.70;;;23.80;72.60;;;;;;21092731;28;20309;-65
2023/08/03 15:30:38;;;;;;;0.70;0.70;;;23.20;74.10;;;;;;21092081;28;20230;-69
2023/08/03 15:40:43;;;;;;;0.80;0.60;;;23.00;75.20;;;;;;21092409;28;20286;-75
2023/08/03 15:50:47;;;;;;;0.80;0.80;;;22.60;75.50;;;;;;21090938;28;20317;-67
2023/08/03 16:00:56;;;;;;;0.80;0.50;;;22.60;76.00;;;;;;21114079;28;20205;-74
2023/08/03 16:10:59;;;;;;;1.20;0.90;;;22.40;75.50;;;;;;21173846;28;20242;-74
2023/08/03 16:21:06;;;;;;;0.80;0.77;;;22.30;75.70;;;;;;21172740;28;20533;-72
2023/08/03 16:31:19;;;;;;;1.07;0.70;;;22.40;75.70;;;;;;21172774;28;20238;-76
2023/08/03 16:41:27;;;;;;;1.23;0.60;;;22.20;75.50;;;;;;21171892;28;20255;-74
2023/08/03 16:51:29;;;;;;;1.57;0.90;;;22.60;74.40;;;;;;21170525;28;20564;-73
2023/08/03 17:01:30;;;;;;;1.57;0.80;;;22.20;74.90;;;;;;21121853;28;20561;-72
2023/08/03 17:11:32;;;;;;;1.60;1.00;;;22.00;75.90;;;;;;21000103;28;20238;-71
2023/08/03 17:21:34;;;;;;;1.30;1.00;;;22.00;76.40;;;;;;20999324;28;20212;-73
2023/08/03 17:31:37;;;;;;;1.10;0.83;;;21.90;77.30;;;;;;20997427;28;20262;-73
2023/08/03 17:41:39;;;;;;;1.47;0.73;;;21.90;77.60;;;;;;20998011;28;20213;-71
2023/08/03 17:51:41;;;;;;;2.20;0.80;;;21.80;78.10;;;;;;21008861;28;20235;-73
2023/08/03 18:01:43;;;;;;;1.73;1.00;;;21.70;78.60;;;;;;21094446;28;20210;-71
2023/08/03 18:11:45;;;;;;;2.03;0.90;;;21.70;78.80;;;;;;21164442;28;20337;-71
2023/08/03 18:21:46;;;;;;;5.80;3.90;;;21.50;79.70;;;;;;21163090;28;20237;-70
2023/08/03 18:31:48;;;;;;;1.47;0.80;;;21.20;80.70;;;;;;21163021;28;20252;-70
2023/08/03 18:41:50;;;;;;;2.13;0.80;;;21.00;82.10;;;;;;21027147;28;20571;-70
2023/08/03 18:51:52;;;;;;;1.00;0.90;;;20.90;82.70;;;;;;20994380;28;20326;-70
2023/08/03 19:01:54;;;;;;;1.17;0.90;;;20.80;83.10;;;;;;21058682;28;20720;-71
2023/08/03 19:11:56;;;;;;;1.70;1.00;;;20.70;84.00;;;;;;21076343;28;20642;-71
2023/08/03 19:21:58;;;;;;;2.83;0.93;;;20.60;84.60;;;;;;21060040;28;20249;-71
2023/08/03 19:31:59;;;;;;;6.87;1.30;;;20.50;85.70;;;;;;21003978;28;20253;-71
2023/08/03 19:42:01;;;;;;;4.10;1.40;;;20.30;86.70;;;;;;21028070;28;20199;-71
2023/08/03 19:52:03;;;;;;;3.03;1.07;;;20.20;88.00;;;;;;21090926;28;20237;-69
2023/08/03 20:02:08;;;;;;;3.10;1.20;;;20.00;89.10;;;;;;21125138;28;20568;-73
2023/08/03 20:12:11;;;;;;;2.60;1.20;;;19.80;90.20;;;;;;21172360;28;20267;-70
2023/08/03 20:22:13;;;;;;;1.97;1.00;;;19.80;90.60;;;;;;21088727;28;20732;-69
2023/08/03 20:32:15;;;;;;;3.80;1.10;;;19.60;91.20;;;;;;21087623;28;20288;-69
2023/08/03 20:42:17;;;;;;;1.40;0.90;;;19.70;91.70;;;;;;21086836;28;20210;-70
2023/08/03 20:52:21;;;;;;;1.53;0.97;;;19.60;92.20;;;;;;21086381;28;20248;-70
2023/08/03 21:02:23;;;;;;;2.23;1.03;;;19.30;92.60;;;;;;21122550;28;20566;-70
2023/08/03 21:12:25;;;;;;;1.70;0.90;;;19.40;93.00;;;;;;21169595;28;20237;-71
2023/08/03 21:22:27;;;;;;;2.17;0.90;;;19.30;93.30;;;;;;21094817;28;20206;-69
2023/08/03 21:32:29;;;;;;;3.90;1.13;;;19.20;93.60;;;;;;21082154;28;20252;-69
2023/08/03 21:42:36;;;;;;;1.90;1.10;;;19.10;93.80;;;;;;21082769;28;20213;-69
2023/08/03 21:52:38;;;;;;;1.83;1.07;;;19.00;94.00;;;;;;21081421;28;20704;-69
2023/08/03 22:02:40;;;;;;;1.73;0.90;;;18.90;94.40;;;;;;21057096;28;20288;-69
2023/08/03 22:12:46;;;;;;;1.47;0.83;;;18.80;94.60;;;;;;21021253;28;20245;-69
2023/08/03 22:22:48;;;;;;;2.47;1.20;;;18.70;94.90;;;;;;20996719;28;20202;-68
2023/08/03 22:32:50;;;;;;;1.30;1.10;;;18.70;95.30;;;;;;20995639;28;20336;-68
2023/08/03 22:42:52;;;;;;;3.17;1.20;;;18.50;95.50;;;;;;20994575;28;20224;-68
2023/08/03 22:52:54;;;;;;;2.37;1.27;;;18.40;95.80;;;;;;20995366;28;20313;-69
2023/08/03 23:02:55;;;;;;;1.30;1.13;;;18.30;96.20;;;;;;20994936;28;20215;-69
2023/08/03 23:12:57;;;;;;;2.43;1.00;;;18.30;96.50;;;;;;21010943;28;20299;-69
2023/08/03 23:22:59;;;;;;;1.77;1.00;;;18.20;96.90;;;;;;21009801;28;20288;-68
2023/08/03 23:33:01;;;;;;;1.73;1.10;;;18.10;97.20;;;;;;21008471;28;20331;-69
2023/08/03 23:43:03;;;;;;;4.30;1.27;;;18.00;97.60;;;;;;21008256;28;20205;-70
2023/08/03 23:53:04;;;;;;;4.23;1.20;;;17.90;97.90;;;;;;21007938;28;20273;-69
